Time;durP1;ratioP1;P1;durP2;ratioP2;P2;SDS_P1;SDS_P2;PMS_P1;PMS_P2;Temp;Humidity;BMP_temperature;BMP_pressure;BME280_temperature;BME280_humidity;BME280_pressure;Samples;Min_cycle;Max_cycle;Signal;HPM_P1;HPM_P2
2023/08/17 00:00:12;;;;;;;4.03;1.50;;;;;;;14.50;100.00;102176.44;4958623;28;20175;-43
2023/08/17 00:02:38;;;;;;;1.55;1.30;;;;;;;14.61;100.00;102168.91;4966537;28;20191;-45
2023/08/17 00:05:06;;;;;;;2.63;1.38;;;;;;;14.71;100.00;102170.34;4962729;28;20181;-42
2023/08/17 00:07:31;;;;;;;3.15;1.50;;;;;;;14.54;100.00;102167.28;4963476;28;20174;-44
2023/08/17 00:09:57;;;;;;;2.67;1.40;;;;;;;14.53;100.00;102162.84;4962670;28;20209;-44
2023/08/17 00:12:22;;;;;;;2.50;1.27;;;;;;;14.53;100.00;102177.19;4962895;28;20178;-43
2023/08/17 00:14:48;;;;;;;5.47;1.60;;;;;;;14.42;100.00;102169.47;4950858;28;20206;-45
2023/08/17 00:17:14;;;;;;;3.05;1.60;;;;;;;14.46;100.00;102181.03;4945324;28;20249;-45
2023/08/17 00:19:39;;;;;;;3.30;1.48;;;;;;;14.42;100.00;102172.16;4961568;28;20187;-49
2023/08/17 00:22:05;;;;;;;2.58;1.20;;;;;;;14.48;100.00;102171.09;4962941;28;20170;-48
2023/08/17 00:24:30;;;;;;;5.15;1.55;;;;;;;14.57;100.00;102176.19;4949136;28;20265;-43
2023/08/17 00:26:55;;;;;;;1.67;1.27;;;;;;;14.56;100.00;102181.63;4964562;28;20723;-47
2023/08/17 00:29:22;;;;;;;3.03;1.60;;;;;;;14.58;100.00;102182.47;4939621;23;20251;-49
2023/08/17 00:31:48;;;;;;;1.33;1.23;;;;;;;14.61;100.00;102177.00;4930430;29;20217;-51
2023/08/17 00:34:13;;;;;;;5.05;1.80;;;;;;;14.64;100.00;102174.19;4927546;29;20199;-46
2023/08/17 00:36:39;;;;;;;4.72;1.60;;;;;;;14.74;100.00;102163.97;4917999;29;20187;-46
2023/08/17 00:39:05;;;;;;;5.78;1.92;;;;;;;14.93;100.00;102169.59;4930585;29;20275;-50
2023/08/17 00:41:30;;;;;;;3.33;2.08;;;;;;;14.95;100.00;102173.13;4927187;29;20214;-47
2023/08/17 00:43:56;;;;;;;5.70;1.83;;;;;;;14.90;100.00;102180.50;4921808;29;20204;-48
2023/08/17 00:46:24;;;;;;;4.55;2.00;;;;;;;14.96;100.00;102185.69;4923335;29;20183;-48
2023/08/17 00:48:50;;;;;;;6.60;1.88;;;;;;;14.91;100.00;102175.06;4922205;29;20218;-49
2023/08/17 00:51:16;;;;;;;8.35;2.47;;;;;;;15.06;100.00;102168.22;4931492;29;20237;-50
2023/08/17 00:53:42;;;;;;;7.78;1.90;;;;;;;15.11;100.00;102166.25;4914906;29;20187;-51
2023/08/17 00:56:08;;;;;;;7.03;2.35;;;;;;;15.14;100.00;102173.38;4907637;29;20704;-53
2023/08/17 00:58:34;;;;;;;5.38;2.17;;;;;;;15.16;100.00;102168.78;4909842;29;20291;-47
2023/08/17 01:01:00;;;;;;;6.30;2.00;;;;;;;15.22;100.00;102180.25;4913805;29;20175;-48
2023/08/17 01:03:28;;;;;;;7.70;2.00;;;;;;;15.17;100.00;102174.13;4931710;29;20693;-47
2023/08/17 01:05:54;;;;;;;9.50;2.15;;;;;;;15.28;100.00;102181.81;4926604;29;20206;-47
2023/08/17 01:08:19;;;;;;;9.15;2.30;;;;;;;15.30;100.00;102177.25;4928708;29;20219;-48
2023/08/17 01:10:55;;;;;;;4.05;2.10;;;;;;;15.24;100.00;102170.28;4927213;29;20187;-49
2023/08/17 01:13:30;;;;;;;5.95;2.30;;;;;;;15.27;100.00;102169.28;4902822;29;20254;-51
2023/08/17 01:16:05;;;;;;;7.15;1.98;;;;;;;15.24;100.00;102164.00;4909122;29;20274;-51
2023/08/17 01:18:34;;;;;;;4.70;2.10;;;;;;;15.17;100.00;102171.41;4905171;29;20212;-48
2023/08/17 01:21:02;;;;;;;7.05;1.80;;;;;;;15.13;100.00;102175.19;4929540;29;20187;-49
2023/08/17 01:23:28;;;;;;;6.43;1.92;;;;;;;15.09;100.00;102162.72;4911665;29;20195;-50
2023/08/17 01:25:54;;;;;;;5.22;1.90;;;;;;;15.12;100.00;102157.22;4924219;29;20577;-47
2023/08/17 01:28:19;;;;;;;3.67;1.90;;;;;;;15.17;100.00;102167.84;4923334;29;20690;-51
2023/08/17 01:31:00;;;;;;;4.90;1.83;;;;;;;15.18;100.00;102164.22;4912850;29;20186;-47
2023/08/17 01:33:37;;;;;;;6.38;1.73;;;;;;;15.17;100.00;102166.00;4911570;29;20199;-48
2023/08/17 01:36:18;;;;;;;7.80;1.60;;;;;;;15.19;100.00;102164.16;4906718;29;20720;-48
2023/08/17 01:38:45;;;;;;;6.68;1.70;;;;;;;15.15;100.00;102154.41;4918783;29;20203;-50
2023/08/17 01:41:13;;;;;;;5.70;1.95;;;;;;;15.16;100.00;102152.59;4930046;29;20206;-45
2023/08/17 01:43:45;;;;;;;2.33;1.55;;;;;;;15.16;100.00;102164.28;4908476;29;20651;-47
2023/08/17 01:46:18;;;;;;;5.90;1.50;;;;;;;15.15;100.00;102145.41;4912179;29;20214;-47
2023/08/17 01:48:45;;;;;;;7.43;1.60;;;;;;;15.18;100.00;102135.41;4925476;29;20271;-50
2023/08/17 01:51:12;;;;;;;5.25;1.95;;;;;;;15.14;100.00;102130.16;4924567;29;20662;-50
2023/08/17 01:53:37;;;;;;;6.45;1.65;;;;;;;15.18;100.00;102126.44;4923747;29;20533;-48
2023/08/17 01:56:03;;;;;;;3.45;1.70;;;;;;;15.24;100.00;102134.31;4927185;29;20179;-49
2023/08/17 01:58:29;;;;;;;4.72;1.48;;;;;;;15.23;100.00;102124.44;4926131;29;20199;-50
2023/08/17 02:00:54;;;;;;;6.07;1.80;;;;;;;15.19;100.00;102120.94;4907046;29;20207;-47
2023/08/17 02:03:20;;;;;;;4.82;1.80;;;;;;;15.22;100.00;102120.84;4924497;29;20196;-46
2023/08/17 02:05:46;;;;;;;3.47;1.55;;;;;;;15.24;100.00;102116.28;4902573;29;20199;-47
2023/08/17 02:08:14;;;;;;;5.88;1.65;;;;;;;15.25;100.00;102109.94;4921065;29;20567;-48
2023/08/17 02:10:39;;;;;;;6.45;1.77;;;;;;;15.20;100.00;102117.31;4904678;29;20196;-50
2023/08/17 02:13:05;;;;;;;4.57;1.58;;;;;;;15.22;100.00;102115.44;4923443;29;20289;-46
2023/08/17 02:15:31;;;;;;;3.33;1.40;;;;;;;15.23;100.00;102119.91;4919904;29;20598;-47
2023/08/17 02:18:00;;;;;;;4.65;1.50;;;;;;;15.23;100.00;102125.31;4924628;29;20290;-47
2023/08/17 02:20:26;;;;;;;4.10;1.52;;;;;;;15.24;100.00;102123.50;4903652;29;20668;-48
2023/08/17 02:22:51;;;;;;;5.60;1.38;;;;;;;15.22;100.00;102119.97;4923609;29;20282;-50
2023/08/17 02:25:17;;;;;;;4.43;1.40;;;;;;;15.22;100.00;102110.06;4922485;29;20191;-46
2023/08/17 02:27:43;;;;;;;4.22;1.42;;;;;;;15.26;100.00;102113.50;4926564;29;20196;-47
2023/08/17 02:30:10;;;;;;;4.30;1.48;;;;;;;15.24;100.00;102121.69;4909608;29;20204;-48
2023/08/17 02:32:35;;;;;;;6.25;1.83;;;;;;;15.27;100.00;102125.22;4910830;29;20188;-48
2023/08/17 02:35:01;;;;;;;3.97;1.30;;;;;;;15.29;100.00;102124.22;4922580;29;20284;-47
2023/08/17 02:37:26;;;;;;;5.95;1.92;;;;;;;15.28;100.00;102130.53;4920294;29;20183;-43
2023/08/17 02:39:52;;;;;;;4.50;1.67;;;;;;;15.26;100.00;102137.81;4918450;29;20203;-44
2023/08/17 02:42:17;;;;;;;2.88;1.38;;;;;;;15.21;100.00;102140.66;4908277;29;20275;-43
2023/08/17 02:44:43;;;;;;;5.57;1.48;;;;;;;15.23;100.00;102137.94;4919236;29;20589;-44
2023/08/17 02:47:09;;;;;;;7.47;1.52;;;;;;;15.23;100.00;102138.81;4921416;29;20654;-46
2023/08/17 02:49:35;;;;;;;4.68;1.58;;;;;;;15.22;100.00;102130.78;4920136;29;20293;-50
2023/08/17 02:52:00;;;;;;;3.53;1.60;;;;;;;15.20;100.00;102135.34;4925887;29;20198;-48
2023/08/17 02:54:26;;;;;;;3.88;1.40;;;;;;;15.20;100.00;102146.16;4930168;29;20199;-49
2023/08/17 02:56:52;;;;;;;5.07;1.52;;;;;;;15.21;100.00;102142.50;4923028;29;20189;-44
2023/08/17 02:59:17;;;;;;;3.40;1.13;;;;;;;15.19;100.00;102137.16;4914128;29;20541;-45
2023/08/17 03:01:44;;;;;;;4.65;1.48;;;;;;;15.20;100.00;102144.31;4910600;29;20303;-45
2023/08/17 03:04:12;;;;;;;4.30;1.70;;;;;;;15.19;100.00;102149.78;4906964;29;20195;-43
2023/08/17 03:06:38;;;;;;;4.65;1.50;;;;;;;15.19;100.00;102152.47;4924425;29;20199;-48
2023/08/17 03:09:05;;;;;;;5.63;1.42;;;;;;;15.17;100.00;102157.91;4917967;29;20230;-46
2023/08/17 03:11:30;;;;;;;3.17;1.25;;;;;;;15.13;100.00;102156.28;4914253;29;20578;-46
2023/08/17 03:13:59;;;;;;;3.42;1.40;;;;;;;15.13;100.00;102156.28;4922176;29;20190;-44
2023/08/17 03:16:27;;;;;;;4.10;1.70;;;;;;;15.10;100.00;102155.50;4904591;29;20259;-44
2023/08/17 03:18:53;;;;;;;5.65;1.60;;;;;;;15.11;100.00;102155.47;4921440;29;20610;-50
2023/08/17 03:21:19;;;;;;;6.43;1.55;;;;;;;15.07;100.00;102156.50;4922795;29;20192;-44
2023/08/17 03:23:45;;;;;;;4.63;1.25;;;;;;;15.08;100.00;102152.84;4907763;29;20605;-45
2023/08/17 03:26:11;;;;;;;2.45;1.10;;;;;;;15.10;100.00;102160.91;4913292;29;20175;-48
2023/08/17 03:28:37;;;;;;;4.68;1.70;;;;;;;15.09;100.00;102153.75;4912658;29;20215;-44
2023/08/17 03:31:03;;;;;;;4.75;1.33;;;;;;;15.07;100.00;102152.94;4920152;29;20613;-45
2023/08/17 03:33:29;;;;;;;3.65;1.30;;;;;;;15.06;100.00;102149.34;4907859;29;20211;-43
2023/08/17 03:35:55;;;;;;;4.15;1.45;;;;;;;15.04;100.00;102145.81;4917878;29;20188;-44
2023/08/17 03:38:20;;;;;;;3.72;1.40;;;;;;;15.07;100.00;102145.72;4926152;29;20207;-47
2023/08/17 03:40:47;;;;;;;3.38;1.33;;;;;;;15.08;100.00;102147.47;4911300;29;20183;-44
2023/08/17 03:43:13;;;;;;;4.50;1.40;;;;;;;15.06;100.00;102141.22;4919291;29;20658;-47
2023/08/17 03:45:41;;;;;;;2.17;1.30;;;;;;;15.02;100.00;102139.56;4903619;29;20184;-48
2023/08/17 03:48:07;;;;;;;8.15;1.67;;;;;;;15.01;100.00;102144.09;4922496;29;20777;-42
2023/08/17 03:50:32;;;;;;;5.53;1.63;;;;;;;15.01;100.00;102136.00;4910852;29;20531;-46
2023/08/17 03:52:58;;;;;;;5.57;1.98;;;;;;;15.00;100.00;102136.94;4925143;29;20195;-44
2023/08/17 03:55:24;;;;;;;2.42;1.25;;;;;;;15.02;100.00;102132.38;4909587;29;20235;-46
2023/08/17 03:57:50;;;;;;;2.83;1.20;;;;;;;14.99;100.00;102134.31;4916505;29;20191;-45
2023/08/17 04:00:16;;;;;;;2.35;1.33;;;;;;;15.00;100.00;102139.66;4918863;29;20180;-48
2023/08/17 04:02:41;;;;;;;4.00;1.25;;;;;;;14.97;100.00;102131.66;4924049;29;20210;-45
2023/08/17 04:05:09;;;;;;;3.33;1.52;;;;;;;15.02;100.00;102132.38;4913495;29;20585;-46
2023/08/17 04:07:35;;;;;;;4.53;1.40;;;;;;;15.00;100.00;102139.66;4915319;29;20191;-46
2023/08/17 04:10:05;;;;;;;3.63;1.10;;;;;;;15.05;100.00;102144.88;4915056;29;20722;-48
2023/08/17 04:12:31;;;;;;;2.10;1.10;;;;;;;15.04;100.00;102141.31;4907335;29;20195;-45
2023/08/17 04:14:57;;;;;;;1.40;1.17;;;;;;;15.05;100.00;102150.28;4925623;29;20202;-45
2023/08/17 04:17:22;;;;;;;2.60;1.23;;;;;;;15.05;100.00;102136.78;4908715;29;20566;-45
2023/08/17 04:19:48;;;;;;;3.22;1.30;;;;;;;15.09;100.00;102143.84;4924497;29;20208;-45
2023/08/17 04:22:14;;;;;;;3.28;1.13;;;;;;;15.13;100.00;102147.28;4914758;29;20230;-46
2023/08/17 04:24:40;;;;;;;6.57;1.38;;;;;;;15.12;100.00;102151.81;4924860;29;20544;-43
2023/08/17 04:27:05;;;;;;;3.50;1.40;;;;;;;15.11;100.00;102144.66;4914941;29;20215;-45
2023/08/17 04:29:31;;;;;;;1.92;1.05;;;;;;;15.12;100.00;102142.84;4920467;29;20216;-44
2023/08/17 04:31:59;;;;;;;3.65;1.00;;;;;;;15.11;100.00;102150.06;4907132;29;20191;-47
2023/08/17 04:34:25;;;;;;;2.55;0.98;;;;;;;15.12;100.00;102151.81;4912327;29;20203;-48
2023/08/17 04:36:50;;;;;;;6.13;1.20;;;;;;;15.12;100.00;102150.94;4922644;29;20206;-45
2023/08/17 04:39:17;;;;;;;2.50;1.13;;;;;;;15.11;100.00;102155.47;4910600;29;20243;-48
2023/08/17 04:41:43;;;;;;;3.55;1.17;;;;;;;15.15;100.00;102157.13;4911165;29;20191;-46
2023/08/17 04:44:11;;;;;;;2.67;1.10;;;;;;;15.12;100.00;102159.03;4911631;29;20206;-51
2023/08/17 04:46:37;;;;;;;2.05;1.08;;;;;;;15.13;100.00;102153.59;4924374;29;20183;-44
2023/08/17 04:49:03;;;;;;;3.63;1.00;;;;;;;15.18;100.00;102157.00;4910042;29;20686;-46
2023/08/17 04:51:28;;;;;;;2.70;1.17;;;;;;;15.16;100.00;102153.47;4923423;29;20202;-46
2023/08/17 04:53:54;;;;;;;4.57;1.20;;;;;;;15.17;100.00;102151.66;4916323;29;20247;-45
2023/08/17 04:56:20;;;;;;;1.25;0.98;;;;;;;15.18;100.00;102159.69;4907811;29;20590;-50
2023/08/17 04:58:46;;;;;;;1.75;0.82;;;;;;;15.19;100.00;102157.88;4912187;29;20294;-46
2023/08/17 05:01:13;;;;;;;2.80;1.10;;;;;;;15.19;100.00;102155.16;4913942;29;20184;-48
2023/08/17 05:03:38;;;;;;;4.70;1.00;;;;;;;15.21;100.00;102153.28;4914582;29;20202;-45
2023/08/17 05:06:04;;;;;;;5.20;1.20;;;;;;;15.20;100.00;102151.56;4925146;29;20592;-46
2023/08/17 05:08:30;;;;;;;1.55;1.10;;;;;;;15.21;100.00;102162.28;4910056;29;20207;-46
2023/08/17 05:10:56;;;;;;;2.03;1.10;;;;;;;15.28;100.00;102159.34;4914277;29;20534;-46
2023/08/17 05:13:21;;;;;;;4.40;1.38;;;;;;;15.27;100.00;102155.78;4907302;29;20187;-50
2023/08/17 05:15:47;;;;;;;3.30;1.20;;;;;;;15.27;100.00;102157.59;4906921;29;20188;-46
2023/08/17 05:18:14;;;;;;;2.22;0.98;;;;;;;15.30;100.00;102160.19;4913614;29;20257;-51
2023/08/17 05:20:40;;;;;;;3.17;1.20;;;;;;;15.32;100.00;102161.88;4908984;29;20191;-45
2023/08/17 05:23:05;;;;;;;3.22;1.27;;;;;;;15.36;100.00;102166.25;4928491;29;20187;-45
2023/08/17 05:25:31;;;;;;;3.40;1.00;;;;;;;15.36;100.00;102163.53;4912823;29;20194;-47
2023/08/17 05:27:56;;;;;;;5.28;1.25;;;;;;;15.40;100.00;102167.00;4912531;29;20239;-51
2023/08/17 05:30:23;;;;;;;3.97;1.38;;;;;;;15.38;100.00;102163.50;4904316;29;20301;-47
2023/08/17 05:32:48;;;;;;;2.75;1.10;;;;;;;15.39;100.00;102160.75;4920901;29;20270;-45
2023/08/17 05:35:14;;;;;;;4.32;1.40;;;;;;;15.40;100.00;102164.31;4915543;29;20180;-45
2023/08/17 05:37:40;;;;;;;6.47;1.17;;;;;;;15.45;100.00;102171.28;4908674;29;20199;-46
2023/08/17 05:40:06;;;;;;;4.75;1.15;;;;;;;15.47;100.00;102170.38;4911692;29;20182;-49
2023/08/17 05:42:31;;;;;;;7.85;1.20;;;;;;;15.49;100.00;102155.88;4916611;29;20184;-45
2023/08/17 05:44:57;;;;;;;3.15;1.10;;;;;;;15.48;100.00;102167.63;4917601;29;20191;-44
2023/08/17 05:47:22;;;;;;;2.55;1.40;;;;;;;15.54;100.00;102163.78;4914321;29;20195;-44
2023/08/17 05:49:48;;;;;;;5.05;1.50;;;;;;;15.54;100.00;102170.06;4923937;29;20311;-46
2023/08/17 05:52:14;;;;;;;4.15;1.25;;;;;;;15.54;100.00;102161.09;4909945;29;20634;-45
2023/08/17 05:54:39;;;;;;;4.75;1.50;;;;;;;15.53;100.00;102175.53;4921924;29;20191;-51
2023/08/17 05:57:05;;;;;;;5.95;1.77;;;;;;;15.55;100.00;102173.66;4922969;29;20258;-52
2023/08/17 05:59:30;;;;;;;3.17;1.23;;;;;;;15.59;100.00;102181.59;4927662;29;20203;-45
2023/08/17 06:01:56;;;;;;;2.50;1.08;;;;;;;15.65;100.00;102181.38;4920856;29;20180;-45
2023/08/17 06:04:21;;;;;;;5.80;1.40;;;;;;;15.66;100.00;102184.94;4921152;29;20732;-50
2023/08/17 06:06:47;;;;;;;7.93;1.73;;;;;;;15.65;100.00;102186.78;4924359;29;20185;-44
2023/08/17 06:09:14;;;;;;;5.60;1.33;;;;;;;15.70;100.00;102185.69;4926886;29;20234;-45
2023/08/17 06:11:39;;;;;;;2.92;1.33;;;;;;;15.71;100.00;102188.38;4921851;29;20188;-45
2023/08/17 06:14:05;;;;;;;3.33;1.50;;;;;;;15.74;100.00;102187.38;4919710;29;20243;-44
2023/08/17 06:16:31;;;;;;;5.50;1.20;;;;;;;15.74;100.00;102190.09;4920034;29;20211;-45
2023/08/17 06:18:57;;;;;;;3.53;1.00;;;;;;;15.72;100.00;102186.56;4918412;29;20590;-47
2023/08/17 06:21:22;;;;;;;2.15;1.20;;;;;;;15.73;100.00;102191.03;4924739;29;20273;-44
2023/08/17 06:23:48;;;;;;;3.60;1.15;;;;;;;15.64;100.00;102187.69;4919021;29;20192;-49
2023/08/17 06:26:13;;;;;;;5.05;1.50;;;;;;;15.74;100.00;102176.56;4922962;29;20214;-48
2023/08/17 06:28:39;;;;;;;5.85;1.88;;;;;;;15.73;100.00;102180.22;4922027;29;20219;-44
2023/08/17 06:31:04;;;;;;;5.00;1.33;;;;;;;15.72;100.00;102190.16;4922967;29;20198;-45
2023/08/17 06:33:30;;;;;;;6.43;1.33;;;;;;;15.78;100.00;102199.84;4913551;29;20195;-48
2023/08/17 06:35:55;;;;;;;3.70;1.40;;;;;;;15.84;100.00;102199.59;4922106;29;20192;-44
2023/08/17 06:38:21;;;;;;;2.55;1.30;;;;;;;15.85;100.00;102207.66;4926108;29;20210;-44
2023/08/17 06:40:47;;;;;;;2.38;1.10;;;;;;;15.85;100.00;102204.06;4910185;29;20654;-50
2023/08/17 06:43:13;;;;;;;4.22;1.42;;;;;;;15.98;100.00;102208.09;4922190;29;20175;-46
2023/08/17 06:45:39;;;;;;;2.92;1.50;;;;;;;15.97;100.00;102214.41;4923019;29;20183;-49
2023/08/17 06:48:05;;;;;;;5.07;1.48;;;;;;;15.95;100.00;102207.31;4912245;29;20199;-45
2023/08/17 06:50:30;;;;;;;4.13;1.45;;;;;;;16.12;100.00;102212.06;4926676;29;20309;-43
2023/08/17 06:52:56;;;;;;;6.63;1.55;;;;;;;16.11;100.00;102213.84;4921787;29;20564;-49
2023/08/17 06:55:21;;;;;;;4.55;1.42;;;;;;;15.99;100.00;102214.34;4928476;29;20187;-48
2023/08/17 06:57:51;;;;;;;7.25;1.80;;;;;;;16.03;100.00;102211.47;4925915;29;20176;-44
2023/08/17 07:00:20;;;;;;;3.70;1.40;;;;;;;16.02;100.00;102211.53;4919732;29;20194;-44
2023/08/17 07:02:50;;;;;;;5.28;1.85;;;;;;;15.99;100.00;102214.34;4922973;29;20192;-45
2023/08/17 07:05:16;;;;;;;6.03;1.55;;;;;;;16.04;100.00;102221.34;4927492;29;20183;-47
2023/08/17 07:07:42;;;;;;;3.63;1.23;;;;;;;16.17;100.00;102223.56;4927507;29;20571;-51
2023/08/17 07:10:08;;;;;;;4.25;1.83;;;;;;;16.27;100.00;102211.44;4922370;29;20199;-42
2023/08/17 07:12:34;;;;;;;6.90;2.00;;;;;;;16.33;100.00;102221.13;4925636;29;20203;-45
2023/08/17 07:14:59;;;;;;;3.95;1.25;;;;;;;16.33;100.00;102222.00;4923958;29;20210;-48
2023/08/17 07:17:24;;;;;;;4.28;1.48;;;;;;;16.22;100.00;102214.34;4920202;29;20570;-46
2023/08/17 07:19:50;;;;;;;4.40;1.45;;;;;;;16.11;100.00;102224.69;4919455;29;20216;-44
2023/08/17 07:22:19;;;;;;;3.88;1.30;;;;;;;16.11;100.00;102218.41;4920238;29;20636;-50
2023/08/17 07:24:44;;;;;;;3.72;1.23;;;;;;;16.16;100.00;102217.28;4920202;29;20192;-46
2023/08/17 07:27:10;;;;;;;4.18;1.40;;;;;;;16.15;100.00;102211.94;4923085;29;20334;-50
2023/08/17 07:29:35;;;;;;;4.00;1.40;;;;;;;16.10;100.00;102220.22;4926262;29;20302;-46
2023/08/17 07:32:02;;;;;;;3.58;1.65;;;;;;;16.14;100.00;102223.69;4929038;29;20274;-46
2023/08/17 07:34:31;;;;;;;2.28;1.38;;;;;;;16.12;100.00;102222.88;4926402;29;20598;-46
2023/08/17 07:36:57;;;;;;;4.75;1.60;;;;;;;16.14;100.00;102221.88;4928609;29;20218;-50
2023/08/17 07:39:23;;;;;;;7.60;1.70;;;;;;;16.18;100.00;102228.94;4922864;29;20215;-49
2023/08/17 07:41:48;;;;;;;2.83;1.60;;;;;;;16.29;100.00;102228.50;4922331;29;20595;-46
2023/08/17 07:44:14;;;;;;;2.42;1.40;;;;;;;16.39;100.00;102229.00;4925793;29;20176;-47
2023/08/17 07:46:39;;;;;;;4.63;1.67;;;;;;;16.40;100.00;102230.78;4925186;29;20175;-50
2023/08/17 07:49:05;;;;;;;5.80;1.60;;;;;;;16.24;100.00;102234.06;4924540;29;20218;-45
2023/08/17 07:51:33;;;;;;;4.15;1.70;;;;;;;16.32;100.00;102224.78;4927353;29;20210;-48
2023/08/17 07:54:00;;;;;;;2.97;1.35;;;;;;;16.26;100.00;102229.47;4910136;29;20624;-46
2023/08/17 07:56:26;;;;;;;3.33;1.65;;;;;;;16.37;100.00;102233.59;4925423;29;20182;-45
2023/08/17 07:58:55;;;;;;;4.22;1.50;;;;;;;16.53;100.00;102220.31;4927203;29;20215;-45
2023/08/17 08:01:21;;;;;;;3.42;1.30;;;;;;;16.54;100.00;102216.69;4920473;29;20705;-45
2023/08/17 08:03:46;;;;;;;7.55;1.55;;;;;;;16.47;100.00;102205.22;4924978;29;20199;-49
2023/08/17 08:06:12;;;;;;;2.67;1.48;;;;;;;16.58;100.00;102210.19;4930120;29;20222;-45
2023/08/17 08:08:39;;;;;;;5.70;1.30;;;;;;;16.62;100.00;102203.72;4927708;29;20219;-47
2023/08/17 08:11:04;;;;;;;3.88;1.30;;;;;;;16.71;100.00;102205.16;4932294;29;20176;-46
2023/08/17 08:13:31;;;;;;;2.67;1.38;;;;;;;16.84;100.00;102195.63;4925848;29;20203;-46
2023/08/17 08:15:58;;;;;;;2.15;1.40;;;;;;;16.82;100.00;102201.09;4923298;29;20654;-46
2023/08/17 08:18:25;;;;;;;4.95;1.48;;;;;;;16.69;100.00;102195.28;4927533;29;20246;-48
2023/08/17 08:20:50;;;;;;;2.47;1.20;;;;;;;16.68;100.00;102203.44;4930441;29;20198;-45
2023/08/17 08:23:16;;;;;;;3.58;1.33;;;;;;;16.64;100.00;102193.72;4921131;29;20176;-51
2023/08/17 08:25:42;;;;;;;3.15;1.25;;;;;;;16.65;100.00;102198.16;4921336;29;20323;-43
2023/08/17 08:28:08;;;;;;;3.72;1.50;;;;;;;16.61;100.00;102201.94;4920748;29;20708;-48
2023/08/17 08:30:34;;;;;;;2.78;1.30;;;;;;;16.74;100.00;102188.78;4923116;29;20279;-45
2023/08/17 08:32:59;;;;;;;3.00;1.27;;;;;;;16.68;100.00;102195.31;4922570;29;20235;-44
2023/08/17 08:35:25;;;;;;;4.88;1.40;;;;;;;16.68;100.00;102193.53;4921841;29;20627;-49
2023/08/17 08:37:51;;;;;;;3.45;1.25;;;;;;;16.73;100.00;102195.16;4923953;29;20191;-52
2023/08/17 08:40:17;;;;;;;3.33;1.13;;;;;;;16.89;100.00;102186.31;4927263;29;20163;-44
2023/08/17 08:42:44;;;;;;;2.85;1.10;;;;;;;16.90;100.00;102192.63;4922920;29;20180;-45
2023/08/17 08:45:10;;;;;;;4.45;1.20;;;;;;;16.86;100.00;102197.31;4922369;29;20239;-46
2023/08/17 08:47:41;;;;;;;1.90;1.30;;;;;;;16.91;100.00;102180.84;4919697;29;20180;-45
2023/08/17 08:50:08;;;;;;;4.30;1.33;;;;;;;16.80;100.00;102185.84;4923150;29;20211;-44
2023/08/17 08:52:40;;;;;;;2.80;1.23;;;;;;;16.87;100.00;102187.34;4918845;29;20274;-46
2023/08/17 08:55:17;;;;;;;3.78;1.52;;;;;;;16.77;100.00;102172.41;4917443;29;20183;-45
2023/08/17 08:57:43;;;;;;;3.08;1.30;;;;;;;16.93;100.00;102173.56;4920351;29;20180;-50
2023/08/17 09:00:09;;;;;;;3.63;1.50;;;;;;;16.82;100.00;102175.84;4924609;29;20179;-46
2023/08/17 09:02:35;;;;;;;2.05;1.25;;;;;;;16.92;100.00;102185.31;4925923;29;20336;-45
2023/08/17 09:05:02;;;;;;;3.90;1.50;;;;;;;16.80;100.00;102186.72;4923577;29;20275;-46
2023/08/17 09:07:31;;;;;;;3.85;1.52;;;;;;;16.69;100.00;102183.56;4923276;29;20252;-47
2023/08/17 09:09:56;;;;;;;3.65;1.90;;;;;;;16.71;100.00;102183.50;4927905;29;20728;-47
2023/08/17 09:12:23;;;;;;;3.85;1.67;;;;;;;16.72;100.00;102188.84;4920698;29;20230;-47
2023/08/17 09:14:48;;;;;;;4.80;1.60;;;;;;;16.64;100.00;102186.47;4916526;29;20183;-50
2023/08/17 09:17:14;;;;;;;4.32;1.77;;;;;;;16.66;100.00;102187.28;4921441;29;20193;-48
2023/08/17 09:19:39;;;;;;;2.83;1.50;;;;;;;16.65;100.00;102182.81;4923360;29;20215;-47
2023/08/17 09:22:05;;;;;;;6.72;1.60;;;;;;;16.64;100.00;102189.19;4908248;29;20317;-46
2023/08/17 09:24:35;;;;;;;6.60;1.85;;;;;;;16.67;100.00;102191.75;4925978;29;20187;-51
2023/08/17 09:27:01;;;;;;;3.05;1.60;;;;;;;16.66;100.00;102192.72;4919815;29;20283;-50
2023/08/17 09:29:26;;;;;;;5.78;1.90;;;;;;;16.65;100.00;102190.06;4920855;29;20227;-47
2023/08/17 09:31:52;;;;;;;5.43;1.88;;;;;;;16.57;100.00;102194.91;4926825;29;20213;-45
2023/08/17 09:34:18;;;;;;;4.35;2.08;;;;;;;16.68;100.00;102184.50;4921046;29;20235;-48
2023/08/17 09:36:47;;;;;;;3.67;1.50;;;;;;;16.70;100.00;102185.31;4910890;29;20291;-48
2023/08/17 09:39:15;;;;;;;4.50;1.77;;;;;;;16.66;100.00;102186.38;4921391;29;20527;-45
2023/08/17 09:41:41;;;;;;;4.28;1.88;;;;;;;16.71;100.00;102186.22;4921997;29;20179;-47
2023/08/17 09:44:07;;;;;;;3.60;1.75;;;;;;;16.72;100.00;102187.97;4919387;29;20199;-47
2023/08/17 09:46:32;;;;;;;4.30;1.80;;;;;;;16.65;100.00;102193.63;4923329;29;20206;-48
2023/08/17 09:48:58;;;;;;;2.83;1.65;;;;;;;16.57;100.00;102198.47;4918163;29;20211;-45
2023/08/17 09:51:24;;;;;;;4.70;1.73;;;;;;;16.56;100.00;102191.31;4920024;29;20179;-46
2023/08/17 09:53:53;;;;;;;4.65;1.83;;;;;;;16.69;100.00;102195.28;4918086;29;20242;-46
2023/08/17 09:56:23;;;;;;;4.65;1.80;;;;;;;16.73;100.00;102187.91;4918922;29;20176;-46
2023/08/17 09:58:49;;;;;;;5.95;2.17;;;;;;;16.64;100.00;102185.59;4919827;29;20572;-45
2023/08/17 10:01:15;;;;;;;5.28;2.08;;;;;;;16.53;100.00;102193.25;4922602;29;20191;-47
2023/08/17 10:03:43;;;;;;;5.32;2.30;;;;;;;16.43;100.00;102199.06;4907070;29;20190;-46
2023/08/17 10:06:12;;;;;;;11.98;2.63;;;;;;;16.46;100.00;102196.25;4924684;29;20337;-45
2023/08/17 10:08:46;;;;;;;4.70;2.58;;;;;;;16.49;100.00;102192.53;4919439;29;20203;-46
2023/08/17 10:11:16;;;;;;;10.73;2.75;;;;;;;16.47;100.00;102194.41;4918378;29;20194;-45
2023/08/17 10:13:56;;;;;;;6.40;2.42;;;;;;;16.45;100.00;102201.72;4926686;29;20176;-45
2023/08/17 10:17:10;;;;;;;3.15;2.10;;;;;;;16.47;100.00;102194.41;4920520;29;20234;-45
2023/08/17 10:19:58;;;;;;;6.40;2.40;;;;;;;16.44;100.00;102197.22;4878504;29;20197;-46
2023/08/17 10:22:33;;;;;;;6.00;2.58;;;;;;;16.27;100.00;102203.34;4880446;29;20204;-51
2023/08/17 10:25:00;;;;;;;4.75;2.63;;;;;;;16.22;100.00;102195.41;4914100;29;20191;-44
2023/08/17 10:27:26;;;;;;;9.20;2.80;;;;;;;16.22;100.00;102206.22;4918850;29;20188;-46
2023/08/17 10:29:53;;;;;;;5.90;2.30;;;;;;;16.33;100.00;102202.19;4920935;29;20291;-46
2023/08/17 10:32:22;;;;;;;7.90;2.78;;;;;;;16.29;100.00;102212.28;4924675;29;20202;-47
2023/08/17 10:34:48;;;;;;;6.97;2.75;;;;;;;16.35;100.00;102203.00;4922526;29;20194;-46
2023/08/17 10:37:15;;;;;;;6.15;2.63;;;;;;;16.36;100.00;102204.78;4918503;29;20333;-46
2023/08/17 10:39:50;;;;;;;8.68;2.70;;;;;;;16.23;100.00;102202.56;4917393;29;20271;-52
2023/08/17 10:42:30;;;;;;;6.97;3.20;;;;;;;16.21;100.00;102209.00;4920228;29;20288;-46
2023/08/17 10:44:56;;;;;;;6.07;3.10;;;;;;;16.15;100.00;102204.69;4917424;29;20191;-46
2023/08/17 10:47:26;;;;;;;6.55;2.88;;;;;;;16.14;100.00;102205.66;4921529;29;20222;-46
2023/08/17 10:49:55;;;;;;;4.80;2.67;;;;;;;16.17;100.00;102200.09;4919594;29;20222;-51
2023/08/17 10:52:29;;;;;;;5.85;2.58;;;;;;;16.23;100.00;102204.41;4920551;29;20181;-48
2023/08/17 10:54:56;;;;;;;8.68;2.92;;;;;;;16.27;100.00;102193.41;4920063;29;20294;-46
2023/08/17 10:57:32;;;;;;;8.50;2.70;;;;;;;16.26;100.00;102204.25;4917833;29;20207;-47
2023/08/17 11:00:13;;;;;;;5.18;2.70;;;;;;;16.36;100.00;102200.25;4920608;29;20310;-46
2023/08/17 11:02:39;;;;;;;5.07;2.85;;;;;;;16.38;100.00;102198.38;4924912;29;20187;-48
2023/08/17 11:05:05;;;;;;;4.57;2.47;;;;;;;16.25;100.00;102203.41;4922967;29;20215;-49
2023/08/17 11:07:41;;;;;;;6.53;2.70;;;;;;;16.37;100.00;102195.72;4922792;29;20186;-51
2023/08/17 11:10:28;;;;;;;5.15;2.55;;;;;;;16.45;100.00;102196.28;4923388;29;20688;-45
2023/08/17 11:13:01;;;;;;;4.65;2.65;;;;;;;16.48;100.00;102194.31;4922691;29;20583;-44
2023/08/17 11:15:42;;;;;;;4.50;2.72;;;;;;;16.55;100.00;102197.69;4926815;29;20282;-44